Time;durP1;ratioP1;P1;durP2;ratioP2;P2;SDS_P1;SDS_P2;PMS_P1;PMS_P2;Temp;Humidity;BMP_temperature;BMP_pressure;BME280_temperature;BME280_humidity;BME280_pressure;Samples;Min_cycle;Max_cycle;Signal;HPM_P1;HPM_P2
2022/03/17 00:01:18;;;;;;;28.00;19.85;;;10.60;99.90;;;;;;5092081;28;20482;-58
2022/03/17 00:03:45;;;;;;;30.52;18.73;;;10.70;99.90;;;;;;5091899;28;20036;-58
2022/03/17 00:06:13;;;;;;;30.25;19.67;;;10.60;99.90;;;;;;5091858;28;20490;-58
2022/03/17 00:08:39;;;;;;;27.77;20.50;;;10.60;99.90;;;;;;5092172;28;20040;-58
2022/03/17 00:11:05;;;;;;;25.88;18.75;;;10.60;99.90;;;;;;5090114;28;20140;-58
2022/03/17 00:13:31;;;;;;;28.73;19.52;;;10.60;99.90;;;;;;5091835;28;20119;-58
2022/03/17 00:15:57;;;;;;;28.25;19.60;;;10.60;99.90;;;;;;5091473;28;20371;-58
2022/03/17 00:18:23;;;;;;;27.58;19.42;;;10.60;99.90;;;;;;5091616;28;20039;-58
2022/03/17 00:20:48;;;;;;;29.63;20.40;;;10.60;99.90;;;;;;5091631;28;20118;-58
2022/03/17 00:23:14;;;;;;;27.77;19.58;;;10.60;99.90;;;;;;5091797;28;20048;-58
2022/03/17 00:25:40;;;;;;;25.92;19.52;;;10.60;99.90;;;;;;5091920;28;20040;-58
2022/03/17 00:28:06;;;;;;;26.85;19.98;;;10.50;99.90;;;;;;5091790;28;20063;-58
2022/03/17 00:30:31;;;;;;;25.10;18.02;;;10.60;99.90;;;;;;5091689;28;20402;-58
2022/03/17 00:32:57;;;;;;;30.13;19.63;;;10.50;99.90;;;;;;5091623;28;20043;-58
2022/03/17 00:38:13;;;;;;;27.00;19.38;;;10.50;99.90;;;;;;5091706;28;20056;-58
2022/03/17 00:40:41;;;;;;;26.67;19.73;;;10.60;99.90;;;;;;5090383;28;20117;-58
2022/03/17 00:43:12;;;;;;;32.45;21.13;;;10.60;99.90;;;;;;5091778;28;20059;-59
2022/03/17 00:45:39;;;;;;;29.33;19.48;;;10.50;99.90;;;;;;5091613;28;20117;-58
2022/03/17 00:48:05;;;;;;;29.60;19.27;;;10.50;99.90;;;;;;5091442;28;20470;-59
2022/03/17 00:50:31;;;;;;;28.23;19.65;;;10.50;99.90;;;;;;5091634;28;20070;-58
2022/03/17 00:52:59;;;;;;;26.77;19.65;;;10.50;99.90;;;;;;5091602;28;20515;-58
2022/03/17 00:55:25;;;;;;;31.67;20.77;;;10.50;99.90;;;;;;5094144;28;20062;-58
2022/03/17 00:57:51;;;;;;;25.67;19.67;;;10.40;99.90;;;;;;5095215;28;20470;-58
2022/03/17 01:00:18;;;;;;;26.67;19.98;;;10.40;99.90;;;;;;5094931;28;20107;-58
2022/03/17 01:02:46;;;;;;;26.80;19.92;;;10.40;99.90;;;;;;5095205;28;20044;-58
2022/03/17 01:05:13;;;;;;;31.83;21.52;;;10.40;99.90;;;;;;5095028;28;20482;-58
2022/03/17 01:07:38;;;;;;;26.42;19.27;;;10.50;99.90;;;;;;5094969;28;20482;-58
2022/03/17 01:10:06;;;;;;;27.63;19.60;;;10.50;99.90;;;;;;5094761;28;20123;-58
2022/03/17 01:12:32;;;;;;;26.45;19.42;;;10.40;99.90;;;;;;5093656;28;20131;-58
2022/03/17 01:14:59;;;;;;;30.05;19.15;;;10.40;99.90;;;;;;5095059;28;20119;-58
2022/03/17 01:17:26;;;;;;;26.88;19.33;;;10.50;99.90;;;;;;5094929;28;20115;-58
2022/03/17 01:19:52;;;;;;;27.25;20.52;;;10.50;99.90;;;;;;5094347;28;20046;-58
2022/03/17 01:22:17;;;;;;;27.13;19.80;;;10.30;99.90;;;;;;5094431;28;20044;-58
2022/03/17 01:24:45;;;;;;;25.73;19.63;;;10.50;99.90;;;;;;5094459;28;20039;-58
2022/03/17 01:27:11;;;;;;;27.90;20.40;;;10.50;99.90;;;;;;5094427;28;20089;-58
2022/03/17 01:29:40;;;;;;;33.90;20.83;;;10.50;99.90;;;;;;5094412;28;20047;-58
2022/03/17 01:32:07;;;;;;;26.23;19.58;;;10.40;99.90;;;;;;5094536;28;20116;-58
2022/03/17 01:34:33;;;;;;;30.63;21.67;;;10.40;99.90;;;;;;5094603;28;20047;-58
2022/03/17 01:36:59;;;;;;;27.45;20.92;;;10.40;99.90;;;;;;5094266;28;20056;-58
2022/03/17 01:39:24;;;;;;;27.70;20.33;;;10.50;99.90;;;;;;5094535;28;20047;-58
2022/03/17 01:41:50;;;;;;;27.80;20.60;;;10.50;99.90;;;;;;5094367;28;20427;-58
2022/03/17 01:44:16;;;;;;;29.52;21.05;;;10.50;99.90;;;;;;5094828;28;20093;-58
2022/03/17 01:49:26;;;;;;;29.95;19.65;;;10.40;99.90;;;;;;5094092;28;20040;-58
2022/03/17 01:51:52;;;;;;;29.30;20.15;;;10.50;99.90;;;;;;5094044;28;20047;-58
2022/03/17 01:54:19;;;;;;;27.52;19.42;;;10.50;99.90;;;;;;5094112;28;20039;-58
2022/03/17 01:56:46;;;;;;;28.52;19.88;;;10.50;99.90;;;;;;5094207;28;20481;-58
2022/03/17 01:59:12;;;;;;;29.90;21.58;;;10.50;99.90;;;;;;5094177;28;20043;-58
2022/03/17 02:01:38;;;;;;;27.17;20.42;;;10.40;99.90;;;;;;5093879;28;20036;-58
2022/03/17 02:04:05;;;;;;;29.95;20.52;;;10.50;99.90;;;;;;5093584;28;20044;-58
2022/03/17 02:06:31;;;;;;;28.90;20.95;;;10.50;99.90;;;;;;5093028;28;20036;-58
2022/03/17 02:08:57;;;;;;;27.95;21.10;;;10.60;99.90;;;;;;5093403;28;20093;-58
2022/03/17 02:14:07;;;;;;;29.25;21.05;;;10.60;99.90;;;;;;5093431;28;20044;-58
2022/03/17 02:16:33;;;;;;;31.00;20.73;;;10.60;99.90;;;;;;5093581;28;20093;-58
2022/03/17 02:18:59;;;;;;;27.25;20.17;;;10.50;99.90;;;;;;5093645;28;20047;-58
2022/03/17 02:21:25;;;;;;;30.98;22.02;;;10.50;99.90;;;;;;5093419;28;20047;-58
2022/03/17 02:26:37;;;;;;;29.92;22.58;;;10.50;99.90;;;;;;5093513;28;20040;-58
2022/03/17 02:29:03;;;;;;;27.35;20.98;;;10.50;99.90;;;;;;5093493;28;20166;-58
2022/03/17 02:31:28;;;;;;;30.13;21.17;;;10.50;99.90;;;;;;5093264;28;20119;-58
2022/03/17 02:33:54;;;;;;;30.33;21.23;;;10.50;99.90;;;;;;5093132;28;20042;-58
2022/03/17 02:36:20;;;;;;;29.65;20.92;;;10.50;99.90;;;;;;5093387;28;20047;-58
2022/03/17 02:38:45;;;;;;;31.30;21.15;;;10.50;99.90;;;;;;5093225;28;20056;-58
2022/03/17 02:41:21;;;;;;;29.52;21.25;;;10.50;99.90;;;;;;5092831;28;20128;-58
2022/03/17 02:43:54;;;;;;;29.30;22.02;;;10.50;99.90;;;;;;5092129;28;20120;-58
2022/03/17 02:46:21;;;;;;;27.95;21.42;;;10.50;99.90;;;;;;5093089;28;20076;-58
2022/03/17 02:48:47;;;;;;;27.63;20.50;;;10.60;99.90;;;;;;5092848;28;20492;-58
2022/03/17 02:51:13;;;;;;;26.70;20.80;;;10.60;99.90;;;;;;5092889;28;20044;-58
2022/03/17 02:53:38;;;;;;;26.33;20.70;;;10.60;99.90;;;;;;5092746;28;20044;-58
2022/03/17 02:56:04;;;;;;;26.58;20.63;;;10.70;99.90;;;;;;5092528;28;20174;-58
2022/03/17 02:58:31;;;;;;;32.25;20.92;;;10.70;99.90;;;;;;5092757;28;20036;-58
2022/03/17 03:00:58;;;;;;;28.63;20.88;;;10.70;99.90;;;;;;5092762;28;20497;-58
2022/03/17 03:03:23;;;;;;;26.77;20.70;;;10.70;99.90;;;;;;5093270;28;20106;-58
2022/03/17 03:05:49;;;;;;;27.95;21.48;;;10.70;99.90;;;;;;5091222;28;20593;-58
2022/03/17 03:08:15;;;;;;;27.08;20.05;;;10.70;99.90;;;;;;5092609;28;20035;-58
2022/03/17 03:10:42;;;;;;;26.20;20.10;;;10.70;99.90;;;;;;5092786;28;20375;-59
2022/03/17 03:13:10;;;;;;;27.40;20.80;;;10.70;99.90;;;;;;5092392;28;20451;-59
2022/03/17 03:15:36;;;;;;;29.73;21.23;;;10.70;99.90;;;;;;5092168;28;20042;-58
2022/03/17 03:18:02;;;;;;;32.72;22.02;;;10.70;99.90;;;;;;5091445;28;20441;-59
2022/03/17 03:20:28;;;;;;;29.23;21.98;;;10.70;99.90;;;;;;5092264;28;20076;-59
2022/03/17 03:22:53;;;;;;;29.45;21.27;;;10.70;99.90;;;;;;5092245;28;20063;-59
2022/03/17 03:25:19;;;;;;;29.45;21.45;;;10.70;99.90;;;;;;5092072;28;20486;-59
2022/03/17 03:27:44;;;;;;;27.75;21.45;;;10.70;99.90;;;;;;5092482;28;20040;-59
2022/03/17 03:30:12;;;;;;;28.90;23.15;;;10.70;99.90;;;;;;5092229;28;20040;-59
2022/03/17 03:32:44;;;;;;;30.65;22.58;;;10.70;99.90;;;;;;5092535;28;20332;-59
2022/03/17 03:37:56;;;;;;;29.35;22.60;;;10.80;99.90;;;;;;5092102;28;20044;-59
2022/03/17 03:40:21;;;;;;;27.70;21.73;;;10.80;99.90;;;;;;5092023;28;20111;-59
2022/03/17 03:42:47;;;;;;;31.60;22.92;;;10.80;99.90;;;;;;5090959;28;20123;-59
2022/03/17 03:45:13;;;;;;;27.63;22.13;;;10.80;99.90;;;;;;5092020;28;20036;-59
2022/03/17 03:47:39;;;;;;;26.98;22.77;;;10.70;99.90;;;;;;5091819;28;20079;-59
2022/03/17 03:50:05;;;;;;;34.22;21.33;;;10.80;99.90;;;;;;5092316;28;20085;-59
2022/03/17 03:52:30;;;;;;;29.55;22.65;;;10.80;99.90;;;;;;5091723;28;20505;-59
2022/03/17 03:54:56;;;;;;;29.05;22.85;;;10.80;99.90;;;;;;5091860;28;20036;-59
2022/03/17 03:57:22;;;;;;;29.83;23.33;;;10.70;99.90;;;;;;5091735;28;20036;-59
2022/03/17 03:59:48;;;;;;;28.63;22.63;;;10.80;99.90;;;;;;5091832;28;20086;-60
2022/03/17 04:02:14;;;;;;;29.58;22.77;;;10.70;99.90;;;;;;5091892;28;20040;-60
2022/03/17 04:04:40;;;;;;;28.55;23.30;;;10.80;99.90;;;;;;5090451;28;20044;-60
2022/03/17 04:07:10;;;;;;;31.85;24.02;;;10.80;99.90;;;;;;5091835;28;20044;-60
2022/03/17 04:09:41;;;;;;;32.97;25.10;;;10.70;99.90;;;;;;5091732;28;20495;-60
2022/03/17 04:12:09;;;;;;;31.63;25.83;;;10.70;99.90;;;;;;5091546;28;20040;-60
2022/03/17 04:14:36;;;;;;;35.80;26.77;;;10.60;99.90;;;;;;5091998;28;20478;-60
2022/03/17 04:17:02;;;;;;;35.15;26.73;;;10.50;99.90;;;;;;5091918;28;20097;-60
2022/03/17 04:19:27;;;;;;;34.28;26.67;;;10.40;99.90;;;;;;5091503;28;20040;-60
2022/03/17 04:21:53;;;;;;;34.85;26.98;;;10.30;99.90;;;;;;5091561;28;20043;-60
2022/03/17 04:24:20;;;;;;;37.35;27.65;;;10.30;99.90;;;;;;5091417;28;20032;-60
2022/03/17 04:26:47;;;;;;;37.22;27.92;;;10.20;99.90;;;;;;5091767;28;20111;-60
2022/03/17 04:29:13;;;;;;;36.33;28.10;;;10.10;99.90;;;;;;5092724;28;20039;-60
2022/03/17 04:31:40;;;;;;;39.55;30.30;;;10.00;99.90;;;;;;5095742;28;20475;-60
2022/03/17 04:34:07;;;;;;;42.05;30.63;;;9.90;99.90;;;;;;5095497;28;20122;-59
2022/03/17 04:36:33;;;;;;;39.60;30.85;;;9.90;99.90;;;;;;5095862;28;20036;-60
2022/03/17 04:39:01;;;;;;;36.58;28.90;;;9.90;99.90;;;;;;5095245;28;20044;-59
2022/03/17 04:41:27;;;;;;;41.20;30.58;;;9.80;99.90;;;;;;5095478;28;20055;-59
2022/03/17 04:43:52;;;;;;;42.53;31.58;;;9.80;99.90;;;;;;5095294;28;20040;-60
2022/03/17 04:46:18;;;;;;;41.67;32.05;;;9.80;99.90;;;;;;5095376;28;20089;-60
2022/03/17 04:48:44;;;;;;;47.83;33.92;;;9.80;99.90;;;;;;5095454;28;20052;-60
2022/03/17 04:51:09;;;;;;;45.08;34.38;;;9.80;99.90;;;;;;5095621;28;20036;-60
2022/03/17 04:53:35;;;;;;;43.63;34.03;;;9.70;99.90;;;;;;5095043;28;20119;-60
2022/03/17 04:56:05;;;;;;;45.85;34.70;;;9.70;99.90;;;;;;5095354;28;20107;-60
2022/03/17 04:58:33;;;;;;;50.95;37.10;;;9.70;99.90;;;;;;5095542;28;20040;-60
2022/03/17 05:01:00;;;;;;;52.10;37.47;;;9.60;99.90;;;;;;5095300;28;20044;-59
2022/03/17 05:03:27;;;;;;;55.42;38.72;;;9.60;99.90;;;;;;5095133;28;20534;-59
2022/03/17 05:05:54;;;;;;;55.90;39.00;;;9.60;99.90;;;;;;5094999;28;20497;-59
2022/03/17 05:08:20;;;;;;;55.67;38.58;;;9.60;99.90;;;;;;5094979;28;20388;-59
2022/03/17 05:10:47;;;;;;;56.60;40.50;;;9.50;99.90;;;;;;5094848;28;20040;-59
2022/03/17 05:13:14;;;;;;;52.20;34.58;;;9.60;99.90;;;;;;5094854;28;20543;-59
2022/03/17 05:15:40;;;;;;;38.53;26.63;;;9.50;99.90;;;;;;5095289;28;20032;-59
2022/03/17 05:18:07;;;;;;;21.50;14.50;;;9.50;99.90;;;;;;5094912;28;20039;-60
2022/03/17 05:20:37;;;;;;;14.77;11.38;;;9.30;99.90;;;;;;5094642;28;20040;-60
2022/03/17 05:23:05;;;;;;;13.50;10.90;;;9.10;99.90;;;;;;5094979;28;20483;-60
2022/03/17 05:25:31;;;;;;;12.27;9.18;;;9.00;99.90;;;;;;5094864;28;20145;-60
2022/03/17 05:27:58;;;;;;;10.27;8.43;;;8.90;99.90;;;;;;5094849;28;20079;-60
2022/03/17 05:30:24;;;;;;;9.85;8.18;;;8.80;99.90;;;;;;5094892;28;20039;-59
2022/03/17 05:32:50;;;;;;;10.75;8.05;;;8.70;99.90;;;;;;5094869;28;20492;-59
2022/03/17 05:35:16;;;;;;;9.85;8.27;;;8.70;99.90;;;;;;5094419;28;20040;-59
2022/03/17 05:37:42;;;;;;;11.02;8.70;;;8.60;99.90;;;;;;5094293;28;20048;-59
2022/03/17 05:40:15;;;;;;;11.85;8.25;;;8.60;99.90;;;;;;5094341;28;20040;-59
2022/03/17 05:42:49;;;;;;;9.93;7.68;;;8.50;99.90;;;;;;5093903;28;20398;-60
2022/03/17 05:45:15;;;;;;;10.77;7.78;;;8.50;99.90;;;;;;5094451;28;20050;-59
2022/03/17 05:47:44;;;;;;;16.52;10.00;;;8.50;99.90;;;;;;5094319;28;20115;-60
2022/03/17 05:50:11;;;;;;;18.45;10.70;;;8.40;99.90;;;;;;5094301;28;20055;-60
2022/03/17 05:52:38;;;;;;;22.30;12.18;;;8.40;99.90;;;;;;5092608;28;20048;-60
2022/03/17 05:55:15;;;;;;;16.52;11.77;;;8.40;99.90;;;;;;5092784;28;20048;-60
2022/03/17 05:57:42;;;;;;;18.75;12.02;;;8.30;99.90;;;;;;5094012;28;20866;-60
2022/03/17 06:00:10;;;;;;;18.92;11.65;;;8.20;99.90;;;;;;5093978;28;20170;-60
2022/03/17 06:02:40;;;;;;;17.55;12.55;;;8.20;99.90;;;;;;5094303;28;20052;-60
2022/03/17 06:05:07;;;;;;;20.70;13.23;;;8.20;99.90;;;;;;5092447;28;20044;-60
2022/03/17 06:07:40;;;;;;;19.15;12.23;;;8.20;99.90;;;;;;5093827;28;20044;-60
2022/03/17 06:10:08;;;;;;;24.95;11.50;;;8.20;99.90;;;;;;5093824;28;20142;-60
2022/03/17 06:12:34;;;;;;;15.00;9.07;;;8.20;99.90;;;;;;5093571;28;20577;-60
2022/03/17 06:15:01;;;;;;;16.20;8.20;;;8.10;99.90;;;;;;5093877;28;20062;-60
2022/03/17 06:17:50;;;;;;;15.90;7.55;;;8.20;99.90;;;;;;5092433;28;20043;-60
2022/03/17 06:20:18;;;;;;;16.30;7.13;;;8.20;99.90;;;;;;5093696;28;20115;-60
2022/03/17 06:22:47;;;;;;;14.43;6.75;;;8.10;99.90;;;;;;5093604;28;20036;-60
2022/03/17 06:25:14;;;;;;;;;;;8.10;99.90;;;;;;5094014;28;20040;-60
2022/03/17 06:27:42;;;;;;;16.67;7.00;;;8.10;99.90;;;;;;5093550;28;19959;-60
2022/03/17 06:30:16;;;;;;;14.35;7.35;;;8.10;99.90;;;;;;5093350;28;20040;-60
2022/03/17 06:32:43;;;;;;;13.13;7.05;;;8.10;99.90;;;;;;5093214;28;20044;-60
2022/03/17 06:35:10;;;;;;;17.17;6.38;;;8.10;99.90;;;;;;5093381;28;20044;-60
2022/03/17 06:37:37;;;;;;;14.13;4.82;;;8.10;99.90;;;;;;5092789;28;20052;-60
2022/03/17 06:40:04;;;;;;;14.57;7.00;;;8.00;99.90;;;;;;5093289;28;20043;-60
2022/03/17 06:42:30;;;;;;;15.02;5.53;;;8.10;99.90;;;;;;5093316;28;20096;-60
2022/03/17 06:44:56;;;;;;;21.85;5.85;;;8.10;99.90;;;;;;5091816;28;20051;-60
2022/03/17 06:47:22;;;;;;;16.38;5.10;;;8.10;99.90;;;;;;5093021;28;20039;-60
2022/03/17 06:49:47;;;;;;;15.10;4.78;;;8.10;99.90;;;;;;5092810;28;20044;-61
2022/03/17 06:52:13;;;;;;;15.35;3.78;;;8.00;99.90;;;;;;5092318;28;20044;-60
2022/03/17 06:54:38;;;;;;;15.82;3.15;;;8.00;99.90;;;;;;5092634;28;20085;-60
2022/03/17 06:57:04;;;;;;;7.63;2.65;;;8.10;99.90;;;;;;5092848;28;20122;-60
2022/03/17 06:59:30;;;;;;;11.23;3.72;;;8.10;99.90;;;;;;5092611;28;20493;-60
2022/03/17 07:01:55;;;;;;;11.82;3.10;;;7.90;99.90;;;;;;5092379;28;20040;-60
2022/03/17 07:04:21;;;;;;;9.77;2.90;;;8.00;99.90;;;;;;5090887;28;20079;-60
2022/03/17 07:06:48;;;;;;;9.93;2.20;;;8.00;99.90;;;;;;5092433;28;20078;-59
2022/03/17 07:09:13;;;;;;;11.27;2.85;;;8.00;99.90;;;;;;5092598;28;20114;-59
2022/03/17 07:11:39;;;;;;;9.75;1.63;;;7.90;99.90;;;;;;5092612;28;20419;-59
2022/03/17 07:14:05;;;;;;;10.10;2.03;;;7.90;99.90;;;;;;5092521;28;20040;-60
2022/03/17 07:16:31;;;;;;;9.88;2.33;;;8.10;99.90;;;;;;5092339;28;20106;-60
2022/03/17 07:18:56;;;;;;;8.98;1.77;;;8.00;99.90;;;;;;5092394;28;20462;-60
2022/03/17 07:21:22;;;;;;;7.40;1.95;;;8.00;99.90;;;;;;5108114;28;20044;-60
2022/03/17 07:23:47;;;;;;;9.70;1.85;;;8.10;99.90;;;;;;5092252;28;20126;-60
2022/03/17 07:26:13;;;;;;;11.60;2.47;;;8.00;99.90;;;;;;5092527;28;20044;-60
2022/03/17 07:28:39;;;;;;;9.80;2.03;;;8.00;99.90;;;;;;5092299;28;20036;-61
2022/03/17 07:31:04;;;;;;;11.13;1.85;;;8.00;99.90;;;;;;5092405;28;20470;-59
2022/03/17 07:33:32;;;;;;;8.93;1.70;;;8.00;99.90;;;;;;5091878;28;20090;-60
2022/03/17 07:35:58;;;;;;;14.55;2.40;;;7.90;99.90;;;;;;5091949;28;20040;-59
2022/03/17 07:38:24;;;;;;;12.27;2.67;;;8.00;99.90;;;;;;5091984;28;20505;-59
2022/03/17 07:40:49;;;;;;;16.83;2.90;;;8.00;99.90;;;;;;5091738;28;20478;-60
2022/03/17 07:43:15;;;;;;;14.85;2.33;;;8.00;99.90;;;;;;5091903;28;20044;-60
2022/03/17 07:45:41;;;;;;;14.10;2.22;;;8.00;99.90;;;;;;5090822;28;20039;-59
2022/03/17 07:48:07;;;;;;;11.77;2.00;;;8.00;99.90;;;;;;5091901;28;20084;-60
2022/03/17 07:50:33;;;;;;;11.27;2.55;;;8.00;99.90;;;;;;5091853;28;20040;-60
2022/03/17 07:52:59;;;;;;;13.18;3.58;;;8.00;99.90;;;;;;5091936;28;20040;-60
2022/03/17 07:55:25;;;;;;;15.10;3.05;;;8.00;99.90;;;;;;5091951;28;20073;-60
2022/03/17 07:57:51;;;;;;;10.23;2.50;;;8.00;99.90;;;;;;5091949;28;20365;-59
2022/03/17 08:00:17;;;;;;;15.10;3.00;;;7.90;99.90;;;;;;5091735;28;20580;-60
2022/03/17 08:02:43;;;;;;;13.40;3.42;;;8.00;99.90;;;;;;5091597;28;20115;-60
2022/03/17 08:05:10;;;;;;;13.90;1.85;;;8.00;99.90;;;;;;5094674;28;20170;-59
2022/03/17 08:07:37;;;;;;;15.63;2.42;;;8.00;99.90;;;;;;5095811;28;20546;-59
2022/03/17 08:10:03;;;;;;;11.43;2.35;;;8.00;99.90;;;;;;5095707;28;20482;-60
2022/03/17 08:12:30;;;;;;;11.13;2.08;;;8.10;99.90;;;;;;5095706;28;20043;-61
2022/03/17 08:14:56;;;;;;;15.45;3.13;;;8.00;99.90;;;;;;5095821;28;20036;-61
2022/03/17 08:17:21;;;;;;;16.27;2.55;;;8.10;99.90;;;;;;5095728;28;20036;-61
2022/03/17 08:19:47;;;;;;;15.10;2.30;;;8.10;99.90;;;;;;5096124;28;20138;-62
2022/03/17 08:22:13;;;;;;;13.45;2.22;;;8.10;99.90;;;;;;5095819;28;20047;-62
2022/03/17 08:24:38;;;;;;;12.80;2.63;;;8.00;99.90;;;;;;5095689;28;20061;-61
2022/03/17 08:27:05;;;;;;;24.77;3.10;;;8.00;99.90;;;;;;5095535;28;20044;-62
2022/03/17 08:29:31;;;;;;;8.30;2.10;;;8.00;99.90;;;;;;5095370;28;20040;-62
2022/03/17 08:31:59;;;;;;;14.13;2.63;;;8.00;99.90;;;;;;5095423;28;20040;-61
2022/03/17 08:34:26;;;;;;;18.13;2.97;;;8.10;99.90;;;;;;5095273;28;20036;-62
2022/03/17 08:36:54;;;;;;;10.30;2.15;;;8.10;99.90;;;;;;5093914;28;20048;-60
2022/03/17 08:39:20;;;;;;;13.95;2.75;;;8.20;99.90;;;;;;5095479;28;20055;-61
2022/03/17 08:41:46;;;;;;;11.95;2.33;;;8.20;99.90;;;;;;5095333;28;20036;-62
2022/03/17 08:44:12;;;;;;;13.90;2.10;;;8.20;99.90;;;;;;5095186;28;20113;-61
2022/03/17 08:49:23;;;;;;;11.15;1.70;;;8.10;99.90;;;;;;5095209;28;20051;-61
2022/03/17 08:52:02;;;;;;;10.52;2.03;;;8.20;99.90;;;;;;5095288;28;20120;-61
2022/03/17 08:54:29;;;;;;;12.60;2.33;;;8.10;99.90;;;;;;5095188;28;20040;-60
2022/03/17 08:56:59;;;;;;;13.57;2.55;;;8.00;99.90;;;;;;5094901;28;20393;-60
2022/03/17 08:59:36;;;;;;;14.93;2.17;;;8.00;99.90;;;;;;5094858;28;20054;-61
2022/03/17 09:02:05;;;;;;;12.07;2.53;;;8.00;99.90;;;;;;5095103;28;20040;-61
2022/03/17 09:04:32;;;;;;;18.25;2.80;;;8.00;99.90;;;;;;5095117;28;20040;-61
2022/03/17 09:07:01;;;;;;;16.33;2.63;;;8.00;99.90;;;;;;5093443;28;20040;-62
2022/03/17 09:09:29;;;;;;;13.75;3.13;;;8.10;99.90;;;;;;5094824;28;20036;-62
2022/03/17 09:11:55;;;;;;;20.30;3.75;;;8.20;99.90;;;;;;5094669;28;20119;-61
2022/03/17 09:14:22;;;;;;;17.77;2.40;;;8.30;99.90;;;;;;5094764;28;20112;-60
2022/03/17 09:16:47;;;;;;;12.18;2.60;;;8.30;99.90;;;;;;5094778;28;20508;-61
2022/03/17 09:19:13;;;;;;;12.40;2.78;;;8.40;99.90;;;;;;5094576;28;20064;-60
2022/03/17 09:21:39;;;;;;;19.70;2.28;;;8.40;99.90;;;;;;5094566;28;20488;-60
2022/03/17 09:24:05;;;;;;;12.25;2.33;;;8.30;99.90;;;;;;5094550;28;20118;-60
2022/03/17 09:26:31;;;;;;;13.25;2.40;;;8.30;99.90;;;;;;5094347;28;20040;-60
2022/03/17 09:28:57;;;;;;;13.02;2.20;;;8.30;99.90;;;;;;5094347;28;20115;-60
2022/03/17 09:31:23;;;;;;;17.73;3.25;;;8.40;99.90;;;;;;5094631;28;20105;-60
2022/03/17 09:33:50;;;;;;;13.38;2.15;;;8.50;99.90;;;;;;5094329;28;20036;-60
2022/03/17 09:36:18;;;;;;;9.57;2.22;;;8.60;99.90;;;;;;5092540;28;20055;-60
2022/03/17 09:39:39;;;;;;;15.63;2.95;;;8.70;99.90;;;;;;5093972;28;20047;-60
2022/03/17 09:41:33;;;;;;;13.73;2.40;;;8.70;99.90;;;;;;5094215;28;20379;-60
2022/03/17 09:43:59;;;;;;;11.25;2.85;;;8.70;99.90;;;;;;5094247;28;20044;-60
2022/03/17 09:46:28;;;;;;;17.70;2.13;;;8.80;99.90;;;;;;5094085;28;20073;-61
2022/03/17 09:48:55;;;;;;;10.73;2.55;;;8.80;99.90;;;;;;5094031;28;20486;-60
2022/03/17 09:51:24;;;;;;;12.30;1.90;;;8.80;99.90;;;;;;5093963;28;20031;-60
2022/03/17 09:53:53;;;;;;;17.67;2.88;;;8.90;99.90;;;;;;5093906;28;20044;-60
2022/03/17 09:56:23;;;;;;;13.70;2.10;;;9.00;99.90;;;;;;5094090;28;20093;-60
2022/03/17 09:58:54;;;;;;;11.23;2.08;;;9.10;99.90;;;;;;5094304;28;20040;-60
2022/03/17 10:01:22;;;;;;;22.83;3.47;;;9.10;99.90;;;;;;5092500;28;20044;-60
2022/03/17 10:03:48;;;;;;;14.27;3.13;;;9.20;99.90;;;;;;5093798;28;20044;-60
2022/03/17 10:06:17;;;;;;;12.43;2.65;;;9.10;99.90;;;;;;5108897;28;20056;-60
2022/03/17 10:08:45;;;;;;;20.65;3.35;;;9.30;99.90;;;;;;5093589;28;20417;-60
2022/03/17 10:11:18;;;;;;;10.88;2.33;;;9.40;99.90;;;;;;5093630;28;20092;-61
2022/03/17 10:13:46;;;;;;;12.10;2.30;;;9.40;99.90;;;;;;5093476;28;20127;-60
2022/03/17 10:16:21;;;;;;;12.13;2.00;;;9.60;99.90;;;;;;5093390;28;20039;-60
2022/03/17 10:18:59;;;;;;;17.00;2.50;;;9.80;99.90;;;;;;5093804;28;20430;-60
2022/03/17 10:21:26;;;;;;;9.23;2.30;;;10.00;99.90;;;;;;5093410;28;20044;-61
2022/03/17 10:23:59;;;;;;;11.23;2.22;;;10.30;99.90;;;;;;5093428;28;20431;-60
2022/03/17 10:26:49;;;;;;;13.95;2.58;;;10.40;99.90;;;;;;5092915;28;20041;-60
2022/03/17 10:29:19;;;;;;;10.13;2.40;;;10.50;99.90;;;;;;5093204;28;20079;-61
2022/03/17 10:32:02;;;;;;;9.35;2.47;;;10.40;99.90;;;;;;5093368;28;20036;-60
2022/03/17 10:34:36;;;;;;;13.13;2.70;;;10.40;99.90;;;;;;5093138;28;20546;-60
2022/03/17 10:37:09;;;;;;;19.55;2.50;;;10.30;99.90;;;;;;5092929;28;20056;-61
2022/03/17 10:39:56;;;;;;;16.77;3.00;;;10.40;99.90;;;;;;5093153;28;20110;-60
2022/03/17 10:42:27;;;;;;;15.95;2.72;;;10.80;99.90;;;;;;5093119;28;20097;-60
2022/03/17 10:45:05;;;;;;;12.38;2.33;;;11.10;99.90;;;;;;5093013;28;20032;-60
2022/03/17 10:47:36;;;;;;;9.02;1.92;;;11.20;99.90;;;;;;5092870;28;20044;-60
2022/03/17 10:50:08;;;;;;;11.73;2.45;;;11.40;99.90;;;;;;5092927;28;20036;-60
2022/03/17 10:52:57;;;;;;;15.13;3.10;;;11.60;99.90;;;;;;5092977;28;20128;-61
2022/03/17 10:55:27;;;;;;;11.25;2.30;;;11.40;99.90;;;;;;5092644;28;20040;-60
2022/03/17 10:57:58;;;;;;;12.20;3.05;;;11.30;99.90;;;;;;5091008;28;20070;-61
2022/03/17 11:00:28;;;;;;;16.20;2.80;;;11.20;99.90;;;;;;5092511;28;20040;-60
2022/03/17 11:02:58;;;;;;;16.70;3.55;;;11.20;99.90;;;;;;5092941;28;20048;-60
2022/03/17 11:05:27;;;;;;;19.13;2.88;;;11.20;99.90;;;;;;5092740;28;20421;-60
2022/03/17 11:07:54;;;;;;;13.93;2.67;;;11.10;99.90;;;;;;5092557;28;20071;-61
2022/03/17 11:10:22;;;;;;;9.75;2.13;;;11.10;99.90;;;;;;5092054;28;20050;-61
2022/03/17 11:12:50;;;;;;;12.43;2.20;;;11.20;99.90;;;;;;5092286;28;20093;-60
2022/03/17 11:15:24;;;;;;;13.95;3.20;;;11.70;99.90;;;;;;5092276;28;20527;-60
2022/03/17 11:17:51;;;;;;;12.40;1.90;;;11.80;99.90;;;;;;5092234;28;20028;-61
2022/03/17 11:20:20;;;;;;;10.65;3.03;;;11.70;99.90;;;;;;5092443;28;20036;-61
2022/03/17 11:23:06;;;;;;;11.45;3.38;;;11.80;99.90;;;;;;5092095;28;20040;-60
2022/03/17 11:25:34;;;;;;;13.45;2.20;;;12.10;99.90;;;;;;5092196;28;20076;-61
2022/03/17 11:28:05;;;;;;;14.98;2.22;;;12.30;99.90;;;;;;5092199;28;20048;-61
2022/03/17 11:30:32;;;;;;;14.65;2.22;;;12.80;99.90;;;;;;5092429;28;20119;-60
2022/03/17 11:32:58;;;;;;;9.80;2.22;;;12.80;99.90;;;;;;5090315;28;20055;-60
2022/03/17 11:35:29;;;;;;;12.10;1.60;;;12.90;99.90;;;;;;5092078;28;20029;-61
2022/03/17 11:38:15;;;;;;;10.20;2.22;;;13.10;99.90;;;;;;5091683;28;20086;-60
2022/03/17 11:41:11;;;;;;;7.95;2.03;;;13.20;99.90;;;;;;5091891;28;20040;-60
2022/03/17 11:43:46;;;;;;;11.70;2.90;;;13.00;99.90;;;;;;5091895;28;20512;-61
2022/03/17 11:46:13;;;;;;;15.50;2.60;;;12.70;99.90;;;;;;5090559;28;20044;-60
2022/03/17 11:48:40;;;;;;;13.30;1.75;;;12.40;99.90;;;;;;5091940;28;20119;-60
2022/03/17 11:51:07;;;;;;;10.60;1.88;;;12.60;99.90;;;;;;5091959;28;20078;-60
2022/03/17 11:53:38;;;;;;;11.43;2.53;;;12.70;99.90;;;;;;5091645;28;20498;-61
2022/03/17 11:56:05;;;;;;;13.30;2.47;;;12.70;99.90;;;;;;5091850;28;20036;-60
2022/03/17 11:58:46;;;;;;;16.15;1.90;;;12.80;99.90;;;;;;5091743;28;20040;-61
2022/03/17 12:01:30;;;;;;;11.95;2.08;;;12.60;99.90;;;;;;5091880;28;20043;-61
2022/03/17 12:04:01;;;;;;;12.35;2.47;;;12.60;99.90;;;;;;5091562;28;20118;-60
2022/03/17 12:06:28;;;;;;;9.55;1.98;;;12.50;99.90;;;;;;5091635;28;20045;-61
2022/03/17 12:09:01;;;;;;;15.23;2.47;;;12.80;99.90;;;;;;5091512;28;20044;-61
2022/03/17 12:11:46;;;;;;;12.85;2.13;;;13.20;99.90;;;;;;5091722;28;20044;-61
2022/03/17 12:14:16;;;;;;;12.65;2.25;;;13.30;99.90;;;;;;5091631;28;20101;-61
2022/03/17 12:16:43;;;;;;;11.25;2.90;;;13.20;99.90;;;;;;5091388;28;20036;-61
2022/03/17 12:19:09;;;;;;;10.13;1.92;;;13.60;99.90;;;;;;5107295;28;20050;-60
2022/03/17 12:22:02;;;;;;;10.13;2.22;;;13.50;99.90;;;;;;5091435;28;20123;-61
2022/03/17 12:24:55;;;;;;;10.07;2.28;;;13.50;99.90;;;;;;5091751;28;20064;-60
2022/03/17 12:27:31;;;;;;;13.13;2.20;;;13.70;99.90;;;;;;5091568;28;20040;-60
2022/03/17 12:30:13;;;;;;;13.48;2.50;;;13.80;99.90;;;;;;5091468;28;20074;-60
2022/03/17 12:32:54;;;;;;;9.98;1.70;;;13.90;99.90;;;;;;5091496;28;20047;-60
2022/03/17 12:35:35;;;;;;;8.10;1.92;;;14.00;99.90;;;;;;5091508;28;20028;-60
2022/03/17 12:38:06;;;;;;;14.48;2.38;;;14.10;99.90;;;;;;5091303;28;20477;-60
2022/03/17 12:40:44;;;;;;;11.57;2.25;;;14.30;99.90;;;;;;5091872;28;20056;-60
2022/03/17 12:43:15;;;;;;;12.05;2.60;;;14.20;99.90;;;;;;5091526;28;20040;-60
2022/03/17 12:45:43;;;;;;;5.53;1.45;;;14.40;99.90;;;;;;5090286;28;20459;-61
2022/03/17 12:48:09;;;;;;;10.07;2.83;;;14.70;99.90;;;;;;5091239;28;20050;-61
2022/03/17 12:50:35;;;;;;;10.20;2.13;;;14.40;99.90;;;;;;5092631;28;20089;-60
2022/03/17 12:53:01;;;;;;;10.13;2.38;;;14.50;99.90;;;;;;5094975;28;20382;-61
2022/03/17 12:55:27;;;;;;;8.07;1.60;;;14.10;99.90;;;;;;5110780;28;20047;-61
2022/03/17 12:57:54;;;;;;;7.97;2.08;;;14.60;99.90;;;;;;5095071;28;20064;-61
2022/03/17 13:00:23;;;;;;;11.38;2.58;;;14.80;99.90;;;;;;5095131;28;20042;-61